createdAt,value
2019-01-04T00:01:43.521Z,21.53
2019-01-04T00:04:18.119Z,20.50
2019-01-04T00:06:47.147Z,18.63
2019-01-04T00:09:16.134Z,21.57
2019-01-04T00:11:45.086Z,17.23
2019-01-04T00:14:14.248Z,16.80
2019-01-04T00:16:43.270Z,17.63
2019-01-04T00:19:12.238Z,14.77
2019-01-04T00:21:41.071Z,18.73
2019-01-04T00:24:10.062Z,15.63
2019-01-04T00:26:39.050Z,15.70
2019-01-04T00:29:07.994Z,18.33
2019-01-04T00:31:36.903Z,18.37
2019-01-04T00:34:05.822Z,13.73
2019-01-04T00:36:34.790Z,15.83
2019-01-04T00:39:04.382Z,15.77
2019-01-04T00:41:33.354Z,14.30
2019-01-04T00:44:02.341Z,14.77
2019-01-04T00:46:31.331Z,14.63
2019-01-04T00:49:00.352Z,16.87
2019-01-04T00:51:29.292Z,14.50
2019-01-04T00:53:58.187Z,16.10
2019-01-04T00:57:11.424Z,17.03
2019-01-04T01:00:32.602Z,11.77
2019-01-04T01:03:27.341Z,14.03
2019-01-04T01:06:52.505Z,15.63
2019-01-04T01:10:20.803Z,14.83
2019-01-04T01:13:17.245Z,15.13
2019-01-04T01:16:19.513Z,14.20
2019-01-04T01:19:05.897Z,12.87
2019-01-04T01:21:54.545Z,13.40
2019-01-04T01:25:15.729Z,11.47
2019-01-04T01:28:09.958Z,12.70
2019-01-04T01:31:06.184Z,12.27
2019-01-04T01:34:14.827Z,12.17
2019-01-04T01:37:35.776Z,9.17
2019-01-04T01:40:57.045Z,10.33
2019-01-04T01:44:13.085Z,10.47
2019-01-04T01:46:50.517Z,11.17
2019-01-04T01:50:01.725Z,9.60
2019-01-04T01:52:37.695Z,12.23
2019-01-04T01:55:06.744Z,7.77
2019-01-04T01:57:35.671Z,7.93
2019-01-04T02:00:05.074Z,10.20
2019-01-04T02:02:33.905Z,8.50
2019-01-04T02:05:02.817Z,11.37
2019-01-04T02:07:31.714Z,11.53
2019-01-04T02:10:00.570Z,13.00
2019-01-04T02:12:29.393Z,13.40
2019-01-04T02:14:58.319Z,12.63
2019-01-04T02:17:27.226Z,9.80
2019-01-04T02:19:56.149Z,8.97
2019-01-04T02:22:25.061Z,10.97
2019-01-04T02:24:54.101Z,10.37
2019-01-04T02:27:23.027Z,11.67
2019-01-04T02:29:51.966Z,10.30
2019-01-04T02:32:20.961Z,15.77
2019-01-04T02:34:49.855Z,11.80
2019-01-04T02:37:18.687Z,12.87
2019-01-04T02:39:47.536Z,12.47
2019-01-04T02:42:16.370Z,13.17
2019-01-04T02:44:45.264Z,10.57
2019-01-04T02:47:14.238Z,14.07
2019-01-04T02:49:43.068Z,15.13
2019-01-04T02:52:11.917Z,15.07
2019-01-04T02:54:40.876Z,13.50
2019-01-04T02:57:09.896Z,14.90
2019-01-04T02:59:38.821Z,14.67
2019-01-04T03:02:09.752Z,15.20
2019-01-04T03:04:38.664Z,15.87
2019-01-04T03:07:07.654Z,17.77
2019-01-04T03:09:36.618Z,18.10
2019-01-04T03:12:05.629Z,20.07
2019-01-04T03:14:34.483Z,17.90
2019-01-04T03:17:03.480Z,20.67
2019-01-04T03:19:32.424Z,21.80
2019-01-04T03:22:01.251Z,20.43
2019-01-04T03:24:30.124Z,22.97
2019-01-04T03:26:59.140Z,22.30
2019-01-04T03:29:27.967Z,21.37
2019-01-04T03:31:56.864Z,29.23
2019-01-04T03:34:25.710Z,26.93
2019-01-04T03:36:54.724Z,23.17
2019-01-04T03:39:23.578Z,20.37
2019-01-04T03:41:52.479Z,20.60
2019-01-04T03:44:21.402Z,22.40
2019-01-04T03:46:50.246Z,18.73
2019-01-04T03:49:19.207Z,25.23
2019-01-04T03:51:48.155Z,23.03
2019-01-04T03:54:16.985Z,29.17
2019-01-04T03:56:46.014Z,27.60
2019-01-04T03:59:14.875Z,22.80
2019-01-04T04:01:43.870Z,27.80
2019-01-04T04:04:12.700Z,28.87
2019-01-04T04:06:41.711Z,27.97
2019-01-04T04:09:10.690Z,31.30
2019-01-04T04:11:39.561Z,36.17
2019-01-04T04:14:08.502Z,33.97
2019-01-04T04:16:37.367Z,32.17
2019-01-04T04:19:06.264Z,31.87
2019-01-04T04:21:35.102Z,33.03
2019-01-04T04:24:04.018Z,30.67
2019-01-04T04:26:32.840Z,34.00
2019-01-04T04:29:01.691Z,32.63
2019-01-04T04:31:30.589Z,33.60
2019-01-04T04:33:59.485Z,39.97
2019-01-04T04:36:28.320Z,33.73
2019-01-04T04:38:57.428Z,37.00
2019-01-04T04:41:26.272Z,34.77
2019-01-04T04:43:55.112Z,35.43
2019-01-04T04:46:23.951Z,35.13
2019-01-04T04:48:53.254Z,33.73
2019-01-04T04:51:22.071Z,35.83
2019-01-04T04:53:50.930Z,29.90
2019-01-04T04:56:19.746Z,30.97
2019-01-04T04:58:48.574Z,32.83
2019-01-04T05:01:17.529Z,32.27
2019-01-04T05:03:46.420Z,27.83
2019-01-04T05:06:15.261Z,33.30
2019-01-04T05:08:44.091Z,28.90
2019-01-04T05:11:12.971Z,33.50
2019-01-04T05:13:41.873Z,27.80
2019-01-04T05:16:10.738Z,28.37
2019-01-04T05:18:39.615Z,30.97
2019-01-04T05:21:08.467Z,22.93
2019-01-04T05:23:37.318Z,25.83
2019-01-04T05:26:06.303Z,25.20
2019-01-04T05:28:35.177Z,29.97
2019-01-04T05:31:04.046Z,25.03
2019-01-04T05:33:32.872Z,23.20
2019-01-04T05:36:01.771Z,25.93
2019-01-04T05:38:30.756Z,25.83
2019-01-04T05:40:59.661Z,29.37
2019-01-04T05:43:28.622Z,29.83
2019-01-04T05:45:57.629Z,23.77
2019-01-04T05:48:26.981Z,31.50
2019-01-04T05:50:55.822Z,28.93
2019-01-04T05:53:24.700Z,25.03
2019-01-04T05:55:53.819Z,25.87
2019-01-04T05:58:22.737Z,28.70
2019-01-04T06:00:51.649Z,25.50
2019-01-04T06:03:20.707Z,22.70
2019-01-04T06:05:49.637Z,24.93
2019-01-04T06:08:18.538Z,25.33
2019-01-04T06:10:47.578Z,21.47
2019-01-04T06:13:16.501Z,25.90
2019-01-04T06:15:45.457Z,20.83
2019-01-04T06:18:14.426Z,21.17
2019-01-04T06:20:43.293Z,23.00
2019-01-04T06:23:12.223Z,20.77
2019-01-04T06:25:41.062Z,19.37
2019-01-04T06:28:09.889Z,19.27
2019-01-04T06:30:38.886Z,15.73
2019-01-04T06:33:07.813Z,17.00
2019-01-04T06:35:36.635Z,21.43
2019-01-04T06:38:05.543Z,18.00
2019-01-04T06:40:34.536Z,18.53
2019-01-04T06:43:03.394Z,17.67
2019-01-04T06:45:32.335Z,18.13
2019-01-04T06:48:01.203Z,20.73
2019-01-04T06:50:30.048Z,18.53
2019-01-04T06:52:58.985Z,17.63
2019-01-04T06:55:48.896Z,17.13
2019-01-04T06:58:17.828Z,18.90
2019-01-04T07:00:46.882Z,17.67
2019-01-04T07:03:15.785Z,18.97
2019-01-04T07:05:44.653Z,15.07
2019-01-04T07:08:13.588Z,20.10
2019-01-04T07:10:42.457Z,14.40
2019-01-04T07:13:11.411Z,18.10
2019-01-04T07:15:40.339Z,19.47
2019-01-04T07:18:09.352Z,15.00
2019-01-04T07:20:38.283Z,15.70
2019-01-04T07:23:07.269Z,19.20
2019-01-04T07:25:37.583Z,17.83
2019-01-04T07:28:06.497Z,18.33
2019-01-04T07:30:35.402Z,18.73
2019-01-04T07:33:04.398Z,20.93
2019-01-04T07:35:33.324Z,18.20
2019-01-04T07:38:02.257Z,19.63
2019-01-04T07:40:31.087Z,22.30
2019-01-04T07:42:59.918Z,21.87
2019-01-04T07:45:28.926Z,21.60
2019-01-04T07:47:57.882Z,20.43
2019-01-04T07:50:26.784Z,22.10
2019-01-04T07:52:55.704Z,22.07
2019-01-04T07:55:24.580Z,24.83
2019-01-04T07:57:53.526Z,24.20
2019-01-04T08:00:22.430Z,26.93
2019-01-04T08:02:52.902Z,21.67
2019-01-04T08:05:23.347Z,22.90
2019-01-04T08:07:52.748Z,22.87
2019-01-04T08:10:21.575Z,28.20
2019-01-04T08:12:50.473Z,22.77
2019-01-04T08:15:19.395Z,26.07
2019-01-04T08:17:48.386Z,26.87
2019-01-04T08:20:17.688Z,24.33
2019-01-04T08:22:46.609Z,26.30
2019-01-04T08:25:15.574Z,25.57
2019-01-04T08:27:44.594Z,22.33
2019-01-04T08:30:18.634Z,26.57
2019-01-04T08:32:47.542Z,25.40
2019-01-04T08:35:16.556Z,26.33
2019-01-04T08:37:45.554Z,23.80
2019-01-04T08:40:15.089Z,25.53
2019-01-04T08:42:44.092Z,23.60
2019-01-04T08:45:16.621Z,27.33
2019-01-04T08:47:45.957Z,25.77
2019-01-04T08:50:15.788Z,26.13
2019-01-04T08:52:44.898Z,21.73
2019-01-04T08:55:17.540Z,22.70
2019-01-04T08:57:46.584Z,22.57
2019-01-04T09:00:15.577Z,20.20
2019-01-04T09:02:44.524Z,25.17
2019-01-04T09:05:13.496Z,20.37
2019-01-04T09:07:42.432Z,23.73
2019-01-04T09:10:11.716Z,20.63
2019-01-04T09:12:40.729Z,21.33
2019-01-04T09:15:10.764Z,22.00
2019-01-04T09:17:39.747Z,20.80
2019-01-04T09:20:10.542Z,20.10
2019-01-04T09:22:39.803Z,22.87
2019-01-04T09:25:10.057Z,20.93
2019-01-04T09:27:39.025Z,21.03
2019-01-04T09:30:10.780Z,24.10
2019-01-04T09:32:39.646Z,23.00
2019-01-04T09:35:08.609Z,22.80
2019-01-04T09:37:37.573Z,24.33
2019-01-04T09:40:08.632Z,23.37
2019-01-04T09:42:37.637Z,22.57
2019-01-04T09:45:07.797Z,23.13
2019-01-04T09:47:36.779Z,23.00
2019-01-04T09:50:06.583Z,24.37
2019-01-04T09:52:35.397Z,22.00
2019-01-04T09:55:04.505Z,22.53
2019-01-04T09:57:33.436Z,22.47
2019-01-04T10:00:02.348Z,25.40
2019-01-04T10:02:31.265Z,24.80
2019-01-04T10:05:00.256Z,25.10
2019-01-04T10:07:29.109Z,22.47
2019-01-04T10:09:57.977Z,25.37
2019-01-04T10:12:26.804Z,24.73
2019-01-04T10:14:55.833Z,24.73
2019-01-04T10:17:24.824Z,25.43
2019-01-04T10:19:53.752Z,26.00
2019-01-04T10:22:22.597Z,26.53
2019-01-04T10:24:51.570Z,25.07
2019-01-04T10:27:20.500Z,24.03
2019-01-04T10:29:49.367Z,25.73
2019-01-04T10:32:18.329Z,22.97
2019-01-04T10:34:47.235Z,22.87
2019-01-04T10:37:16.097Z,25.90
2019-01-04T10:39:45.047Z,27.93
2019-01-04T10:42:13.840Z,20.23
2019-01-04T10:44:42.846Z,26.27
2019-01-04T10:47:11.790Z,26.17
2019-01-04T10:49:40.763Z,24.13
2019-01-04T10:52:09.636Z,23.73
2019-01-04T10:54:38.603Z,22.63
2019-01-04T10:57:07.489Z,25.00
2019-01-04T10:59:36.464Z,28.77
2019-01-04T11:02:05.514Z,25.57
2019-01-04T11:04:34.444Z,25.10
2019-01-04T11:07:03.288Z,21.73
2019-01-04T11:09:32.279Z,25.40
2019-01-04T11:12:01.180Z,24.00
2019-01-04T11:14:30.079Z,25.97
2019-01-04T11:16:58.978Z,25.77
2019-01-04T11:19:27.805Z,22.27
2019-01-04T11:22:46.961Z,26.67
2019-01-04T11:26:03.054Z,24.00
2019-01-04T11:29:11.663Z,24.63
2019-01-04T11:32:03.105Z,22.53
2019-01-04T11:35:04.440Z,21.83
2019-01-04T11:38:11.538Z,22.10
2019-01-04T11:41:14.720Z,23.27
2019-01-04T11:44:21.582Z,23.73
2019-01-04T11:47:22.959Z,25.20
2019-01-04T11:50:05.219Z,21.03
2019-01-04T11:52:39.346Z,23.03
2019-01-04T11:55:08.169Z,23.43
2019-01-04T11:57:37.015Z,20.93
2019-01-04T12:00:08.792Z,22.73
2019-01-04T12:02:37.810Z,20.60
2019-01-04T12:05:07.955Z,20.50
2019-01-04T12:07:36.762Z,19.87
2019-01-04T12:10:05.978Z,22.47
2019-01-04T12:12:34.806Z,21.50
2019-01-04T12:15:03.885Z,22.10
2019-01-04T12:17:32.713Z,20.33
2019-01-04T12:20:01.571Z,18.53
2019-01-04T12:22:30.456Z,20.07
2019-01-04T12:24:59.364Z,23.40
2019-01-04T12:27:28.273Z,22.37
2019-01-04T12:29:57.121Z,19.57
2019-01-04T12:32:26.014Z,24.90
2019-01-04T12:34:54.874Z,23.70
2019-01-04T12:37:23.873Z,19.27
2019-01-04T12:39:52.779Z,23.33
2019-01-04T12:42:21.616Z,22.43
2019-01-04T12:44:50.536Z,28.10
2019-01-04T12:47:19.365Z,22.87
2019-01-04T12:49:48.410Z,20.73
2019-01-04T12:52:17.332Z,22.97
2019-01-04T12:54:46.258Z,22.40
2019-01-04T12:57:15.191Z,24.40
2019-01-04T12:59:44.508Z,21.07
2019-01-04T13:02:13.424Z,19.90
2019-01-04T13:04:42.367Z,19.37
2019-01-04T13:07:11.400Z,18.10
2019-01-04T13:09:40.321Z,18.97
2019-01-04T13:12:09.263Z,20.90
2019-01-04T13:14:38.197Z,24.33
2019-01-04T13:17:07.228Z,19.83
2019-01-04T13:19:36.118Z,22.67
2019-01-04T13:22:05.119Z,16.87
2019-01-04T13:24:33.938Z,18.20
2019-01-04T13:27:02.800Z,21.73
2019-01-04T13:29:31.859Z,31.77
2019-01-04T13:32:00.773Z,17.63
2019-01-04T13:34:29.595Z,17.30
2019-01-04T13:36:58.503Z,15.63
2019-01-04T13:39:27.506Z,17.20
2019-01-04T13:41:56.429Z,14.37
2019-01-04T13:44:25.429Z,16.73
2019-01-04T13:46:54.334Z,16.90
2019-01-04T13:49:23.162Z,15.30
2019-01-04T13:51:52.031Z,17.40
2019-01-04T13:54:20.920Z,15.23
2019-01-04T13:56:49.758Z,14.50
2019-01-04T13:59:18.678Z,18.27
2019-01-04T14:01:47.503Z,17.47
2019-01-04T14:04:16.505Z,19.57
2019-01-04T14:06:45.474Z,19.53
2019-01-04T14:09:14.403Z,21.83
2019-01-04T14:11:43.249Z,22.60
2019-01-04T14:14:12.185Z,21.47
2019-01-04T14:16:41.060Z,26.43
2019-01-04T14:19:10.030Z,25.33
2019-01-04T14:21:38.952Z,28.13
2019-01-04T14:24:07.784Z,26.67
2019-01-04T14:26:36.614Z,28.87
2019-01-04T14:29:05.599Z,27.97
2019-01-04T14:31:34.454Z,27.50
2019-01-04T14:34:03.446Z,26.73
2019-01-04T14:36:32.368Z,30.67
2019-01-04T14:39:01.294Z,32.00
2019-01-04T14:41:30.105Z,33.07
2019-01-04T14:43:59.010Z,31.70
2019-01-04T14:46:27.911Z,33.63
2019-01-04T14:48:56.765Z,33.77
2019-01-04T14:51:25.662Z,33.23
2019-01-04T14:53:54.492Z,35.07
2019-01-04T14:56:23.386Z,32.63
2019-01-04T14:58:52.226Z,32.60
2019-01-04T15:01:21.036Z,30.97
2019-01-04T15:03:49.965Z,33.13
2019-01-04T15:06:18.852Z,28.33
2019-01-04T15:08:47.723Z,29.33
2019-01-04T15:11:16.629Z,31.40
2019-01-04T15:13:45.566Z,33.83
2019-01-04T15:16:14.379Z,31.97
2019-01-04T15:18:43.198Z,33.67
2019-01-04T15:21:12.114Z,69.27
2019-01-04T15:23:40.985Z,48.23
2019-01-04T15:26:09.977Z,41.03
2019-01-04T15:28:38.821Z,31.97
2019-01-04T15:31:07.718Z,36.10
2019-01-04T15:33:36.581Z,31.30
2019-01-04T15:36:05.567Z,31.47
2019-01-04T15:38:36.281Z,30.47
2019-01-04T15:41:05.364Z,33.97
2019-01-04T15:43:34.198Z,32.27
2019-01-04T15:46:03.265Z,30.67
2019-01-04T15:48:32.072Z,30.57
2019-01-04T15:51:01.052Z,33.13
2019-01-04T15:53:29.897Z,34.57
2019-01-04T15:55:58.848Z,34.80
2019-01-04T15:58:27.693Z,39.83
2019-01-04T16:00:56.557Z,33.33
2019-01-04T16:03:25.460Z,34.23
2019-01-04T16:05:54.325Z,42.33
2019-01-04T16:08:23.320Z,35.73
2019-01-04T16:10:52.189Z,38.60
2019-01-04T16:13:21.084Z,40.17
2019-01-04T16:15:49.937Z,38.13
2019-01-04T16:18:18.824Z,35.33
2019-01-04T16:20:47.793Z,38.03
2019-01-04T16:23:16.620Z,39.77
2019-01-04T16:25:45.485Z,40.17
2019-01-04T16:28:14.321Z,40.70
2019-01-04T16:30:43.187Z,40.63
2019-01-04T16:33:12.799Z,38.17
2019-01-04T16:35:41.701Z,38.47
2019-01-04T16:38:10.616Z,41.87
2019-01-04T16:40:39.465Z,36.80
2019-01-04T16:43:08.779Z,41.50
2019-01-04T16:45:37.691Z,39.53
2019-01-04T16:48:06.613Z,39.83
2019-01-04T16:50:35.594Z,35.93
2019-01-04T16:53:04.597Z,35.63
2019-01-04T16:55:33.533Z,36.13
2019-01-04T16:58:02.493Z,37.07
2019-01-04T17:00:31.403Z,38.83
2019-01-04T17:03:00.485Z,36.67
2019-01-04T17:05:29.464Z,32.70
2019-01-04T17:07:58.425Z,37.43
2019-01-04T17:10:27.417Z,34.07
2019-01-04T17:12:56.262Z,38.93
2019-01-04T17:15:25.144Z,38.43
2019-01-04T17:17:54.074Z,42.13
2019-01-04T17:20:22.897Z,40.53
2019-01-04T17:22:51.753Z,39.97
2019-01-04T17:25:20.667Z,35.17
2019-01-04T17:27:49.603Z,37.60
2019-01-04T17:30:18.534Z,42.17
2019-01-04T17:32:47.384Z,37.10
2019-01-04T17:35:16.288Z,45.07
2019-01-04T17:37:45.110Z,42.10
2019-01-04T17:40:14.090Z,42.43
2019-01-04T17:42:43.090Z,32.90
2019-01-04T17:45:11.998Z,41.80
2019-01-04T17:47:40.998Z,42.47
2019-01-04T17:50:10.028Z,37.70
2019-01-04T17:52:38.869Z,44.87
2019-01-04T17:55:07.864Z,42.70
2019-01-04T17:57:36.923Z,40.40
2019-01-04T18:00:06.857Z,44.23
2019-01-04T18:02:35.720Z,40.20
2019-01-04T18:05:04.798Z,38.60
2019-01-04T18:07:33.670Z,34.00
2019-01-04T18:10:02.572Z,38.10
2019-01-04T18:12:31.405Z,35.00
2019-01-04T18:15:00.355Z,42.53
2019-01-04T18:17:29.256Z,37.53
2019-01-04T18:19:58.179Z,38.27
2019-01-04T18:22:27.310Z,44.90
2019-01-04T18:24:56.328Z,45.33
2019-01-04T18:27:25.144Z,43.50
2019-01-04T18:29:54.012Z,43.40
2019-01-04T18:32:22.908Z,44.97
2019-01-04T18:34:51.821Z,47.50
2019-01-04T18:37:20.713Z,42.53
2019-01-04T18:39:49.608Z,45.13
2019-01-04T18:42:18.494Z,53.43
2019-01-04T18:44:47.333Z,50.97
2019-01-04T18:47:16.157Z,47.17
2019-01-04T18:49:45.001Z,53.13
2019-01-04T18:52:13.962Z,48.37
2019-01-04T18:54:42.890Z,49.50
2019-01-04T18:57:11.724Z,54.60
2019-01-04T18:59:40.545Z,48.83
2019-01-04T19:02:09.375Z,49.67
2019-01-04T19:04:39.098Z,47.83
2019-01-04T19:07:08.010Z,49.10
2019-01-04T19:09:36.858Z,39.57
2019-01-04T19:12:05.870Z,45.93
2019-01-04T19:14:34.936Z,56.20
2019-01-04T19:17:03.830Z,51.23
2019-01-04T19:19:32.690Z,47.87
2019-01-04T19:22:01.488Z,50.47
2019-01-04T19:24:30.415Z,57.80
2019-01-04T19:26:59.306Z,54.67
2019-01-04T19:29:28.220Z,56.53
2019-01-04T19:31:57.117Z,50.60
2019-01-04T19:34:26.173Z,57.00
2019-01-04T19:36:55.121Z,59.73
2019-01-04T19:39:24.012Z,50.03
2019-01-04T19:41:52.829Z,50.53
2019-01-04T19:44:21.718Z,54.53
2019-01-04T19:46:50.655Z,55.67
2019-01-04T19:49:19.573Z,52.30
2019-01-04T19:51:48.433Z,55.30
2019-01-04T19:54:17.262Z,52.50
2019-01-04T19:56:46.309Z,59.97
2019-01-04T19:59:15.157Z,56.73
2019-01-04T20:01:44.106Z,55.83
2019-01-04T20:04:12.954Z,54.53
2019-01-04T20:07:25.365Z,56.87
2019-01-04T20:10:48.279Z,63.40
2019-01-04T20:14:19.704Z,54.10
2019-01-04T20:17:23.278Z,53.37
2019-01-04T20:20:21.945Z,64.33
2019-01-04T20:23:22.023Z,53.93
2019-01-04T20:26:11.539Z,61.43
2019-01-04T20:29:17.233Z,59.60
2019-01-04T20:32:19.852Z,61.33
2019-01-04T20:35:06.187Z,63.80
2019-01-04T20:37:59.683Z,65.60
2019-01-04T20:40:47.769Z,66.97
2019-01-04T20:43:38.386Z,61.77
2019-01-04T20:46:21.995Z,62.67
2019-01-04T20:49:15.626Z,61.63
2019-01-04T20:52:11.756Z,59.10
2019-01-04T20:55:12.355Z,54.80
2019-01-04T20:57:57.390Z,58.87
2019-01-04T21:00:44.065Z,60.93
2019-01-04T21:03:43.830Z,51.13
2019-01-04T21:06:34.288Z,58.50
2019-01-04T21:09:20.706Z,52.40
2019-01-04T21:12:06.984Z,49.63
2019-01-04T21:15:09.716Z,53.17
2019-01-04T21:18:06.619Z,54.27
2019-01-04T21:21:00.619Z,54.10
2019-01-04T21:23:45.765Z,55.67
2019-01-04T21:26:45.343Z,49.87
2019-01-04T21:29:48.068Z,57.20
2019-01-04T21:32:34.450Z,58.37
2019-01-04T21:35:22.399Z,52.20
2019-01-04T21:38:08.588Z,59.87
2019-01-04T21:40:55.951Z,62.07
2019-01-04T21:43:42.261Z,61.87
2019-01-04T21:46:43.220Z,58.93
2019-01-04T21:49:33.663Z,59.50
2019-01-04T21:52:27.142Z,57.87
2019-01-04T21:55:14.989Z,58.63
2019-01-04T21:58:08.432Z,62.23
2019-01-04T22:01:06.186Z,72.57
2019-01-04T22:03:52.722Z,64.87
2019-01-04T22:06:40.673Z,69.83
2019-01-04T22:09:22.249Z,65.53
2019-01-04T22:12:11.039Z,69.90
2019-01-04T22:14:57.518Z,69.90
2019-01-04T22:17:52.007Z,72.73
2019-01-04T22:20:38.199Z,71.03
2019-01-04T22:23:41.299Z,67.00
2019-01-04T22:26:34.844Z,68.83
2019-01-04T22:29:40.667Z,75.73
2019-01-04T22:32:28.569Z,74.07
2019-01-04T22:35:14.831Z,77.63
2019-01-04T22:38:17.431Z,77.47
2019-01-04T22:41:05.165Z,75.67
2019-01-04T22:44:02.203Z,76.87
2019-01-04T22:46:45.270Z,79.83
2019-01-04T22:49:27.276Z,77.83
2019-01-04T22:52:13.604Z,70.47
2019-01-04T22:55:16.384Z,78.33
2019-01-04T22:58:02.950Z,78.73
2019-01-04T23:00:50.945Z,83.67
2019-01-04T23:03:50.601Z,76.87
2019-01-04T23:06:37.356Z,80.47
2019-01-04T23:09:28.612Z,75.87
2019-01-04T23:12:14.852Z,68.07
2019-01-04T23:14:59.245Z,72.33
2019-01-04T23:17:45.681Z,67.73
2019-01-04T23:20:36.665Z,73.27
2019-01-04T23:23:22.163Z,66.17
2019-01-04T23:26:10.033Z,63.47
2019-01-04T23:28:56.371Z,62.60
2019-01-04T23:31:43.107Z,60.27
2019-01-04T23:34:46.220Z,61.20
2019-01-04T23:37:32.544Z,61.93
2019-01-04T23:40:18.864Z,54.23
2019-01-04T23:43:15.921Z,56.13
2019-01-04T23:46:02.590Z,55.97
2019-01-04T23:48:44.230Z,54.60
2019-01-04T23:51:35.073Z,51.27
2019-01-04T23:54:15.167Z,47.90
2019-01-04T23:57:01.497Z,48.00
